Time;durP1;ratioP1;P1;durP2;ratioP2;P2;SDS_P1;SDS_P2;PMS_P1;PMS_P2;Temp;Humidity;BMP_temperature;BMP_pressure;BME280_temperature;BME280_humidity;BME280_pressure;Samples;Min_cycle;Max_cycle;Signal;HPM_P1;HPM_P2
2022/12/15 00:40:58;;;;;;;26.00;17.90;;;;;;;;;;10067486;28;20069;-69
2022/12/15 00:51:04;;;;;;;25.23;20.10;;;;;;;;;;10063500;28;20124;-69
2022/12/15 01:21:57;;;;;;;23.55;17.73;;;;;;;;;;10063237;28;20061;-69
2022/12/15 01:26:52;;;;;;;26.60;19.08;;;;;;;;;;10070153;28;20038;-69
2022/12/15 01:31:46;;;;;;;25.63;20.40;;;;;;;;;;10070460;28;20053;-70
2022/12/15 01:36:41;;;;;;;22.10;16.52;;;;;;;;;;10070410;28;20045;-69
2022/12/15 01:41:35;;;;;;;18.20;14.80;;;;;;;;;;10057525;28;20056;-69
2022/12/15 01:46:29;;;;;;;17.05;14.48;;;;;;;;;;10059259;28;20494;-69
2022/12/15 01:51:39;;;;;;;17.42;13.80;;;;;;;;;;10056080;28;20049;-69
2022/12/15 01:56:44;;;;;;;18.15;14.45;;;;;;;;;;10081604;28;20080;-71
2022/12/15 02:01:37;;;;;;;20.52;15.95;;;;;;;;;;10069265;28;20092;-71
2022/12/15 02:06:34;;;;;;;19.77;16.95;;;;;;;;;;10068458;28;20064;-71
2022/12/15 02:11:46;;;;;;;21.38;16.17;;;;;;;;;;10067320;28;20471;-70
2022/12/15 02:17:01;;;;;;;21.92;16.35;;;;;;;;;;10068589;28;20550;-70
2022/12/15 02:22:29;;;;;;;18.98;15.00;;;;;;;;;;10068794;28;20060;-70
2022/12/15 02:27:33;;;;;;;20.88;15.85;;;;;;;;;;10044737;28;20517;-70
2022/12/15 02:32:56;;;;;;;18.60;14.45;;;;;;;;;;10068930;28;20049;-69
2022/12/15 02:37:50;;;;;;;17.85;14.75;;;;;;;;;;10061600;28;20107;-69
2022/12/15 02:43:04;;;;;;;23.77;15.77;;;;;;;;;;10056377;28;20460;-71
2022/12/15 02:48:31;;;;;;;19.30;15.23;;;;;;;;;;10066935;28;20112;-70
2022/12/15 02:53:24;;;;;;;16.80;14.98;;;;;;;;;;10067142;28;20045;-69
2022/12/15 02:58:24;;;;;;;17.40;15.00;;;;;;;;;;10067441;28;20056;-69
2022/12/15 03:03:19;;;;;;;18.30;14.60;;;;;;;;;;10066280;28;20524;-69
2022/12/15 03:08:12;;;;;;;26.75;16.17;;;;;;;;;;10066144;28;20045;-70
2022/12/15 03:13:05;;;;;;;17.88;15.23;;;;;;;;;;10067644;28;20132;-70
2022/12/15 03:17:59;;;;;;;20.65;16.65;;;;;;;;;;10067049;28;20123;-70
2022/12/15 03:22:52;;;;;;;17.98;15.52;;;;;;;;;;10066780;28;20049;-70
2022/12/15 03:27:46;;;;;;;18.23;14.38;;;;;;;;;;10066579;28;20510;-70
2022/12/15 03:32:39;;;;;;;23.88;17.90;;;;;;;;;;10066440;28;20056;-70
2022/12/15 03:37:33;;;;;;;22.13;16.73;;;;;;;;;;10065931;28;20053;-70
2022/12/15 03:47:41;;;;;;;22.15;16.65;;;;;;;;;;10066498;28;20456;-70
2022/12/15 03:52:35;;;;;;;22.80;17.10;;;;;;;;;;10066615;28;20049;-70
2022/12/15 03:57:29;;;;;;;22.08;16.15;;;;;;;;;;10066889;28;20053;-70
2022/12/15 04:02:22;;;;;;;22.35;16.20;;;;;;;;;;10065932;28;20100;-70
2022/12/15 04:07:15;;;;;;;21.35;16.98;;;;;;;;;;10065877;28;20049;-69
2022/12/15 04:12:11;;;;;;;21.83;16.48;;;;;;;;;;10065739;28;20128;-72
2022/12/15 04:17:05;;;;;;;20.58;16.15;;;;;;;;;;10065566;28;20077;-69
2022/12/15 04:22:01;;;;;;;21.38;15.93;;;;;;;;;;10070775;28;20083;-69
2022/12/15 05:34:34;;;;;;;23.23;20.00;;;;;;;;;;10069001;28;20500;-72
2022/12/15 05:39:27;;;;;;;26.10;17.80;;;;;;;;;;10070391;28;20533;-76
2022/12/15 05:44:20;;;;;;;25.88;18.80;;;;;;;;;;10069665;28;20453;-76
2022/12/15 05:49:16;;;;;;;28.10;18.75;;;;;;;;;;10069523;28;20453;-77
2022/12/15 05:54:11;;;;;;;25.13;16.98;;;;;;;;;;10068923;28;20054;-76
2022/12/15 05:59:05;;;;;;;24.17;17.63;;;;;;;;;;10068819;28;20069;-76
2022/12/15 06:03:58;;;;;;;21.20;17.08;;;;;;;;;;10068555;28;20439;-77
2022/12/15 06:08:51;;;;;;;24.13;18.48;;;;;;;;;;10068737;28;20041;-77
2022/12/15 06:13:45;;;;;;;20.60;17.27;;;;;;;;;;10069336;28;20061;-73
2022/12/15 06:18:41;;;;;;;24.77;19.98;;;;;;;;;;10065841;28;20092;-72
2022/12/15 06:23:35;;;;;;;21.63;16.70;;;;;;;;;;10066707;28;20417;-76
2022/12/15 06:28:28;;;;;;;24.88;20.48;;;;;;;;;;10065812;28;20464;-73
2022/12/15 06:33:22;;;;;;;31.17;19.27;;;;;;;;;;10059898;28;20037;-74
2022/12/15 06:38:15;;;;;;;34.22;22.80;;;;;;;;;;10063522;28;20057;-74
2022/12/15 06:43:08;;;;;;;32.20;23.95;;;;;;;;;;10050922;28;20494;-74
2022/12/15 06:48:01;;;;;;;26.02;20.60;;;;;;;;;;10066183;28;20049;-76
2022/12/15 06:52:54;;;;;;;29.30;21.58;;;;;;;;;;10066451;28;20099;-76
2022/12/15 06:57:47;;;;;;;24.75;19.05;;;;;;;;;;10066317;28;20168;-76
2022/12/15 07:02:44;;;;;;;27.38;21.55;;;;;;;;;;10066124;28;20457;-76
2022/12/15 07:07:42;;;;;;;46.65;29.05;;;;;;;;;;10064153;28;20045;-76
2022/12/15 07:12:36;;;;;;;41.33;28.40;;;;;;;;;;10065837;28;20050;-76
2022/12/15 07:17:29;;;;;;;34.13;23.60;;;;;;;;;;10064948;28;20048;-76
2022/12/15 07:22:24;;;;;;;34.05;25.67;;;;;;;;;;10066443;28;20509;-76
2022/12/15 07:27:17;;;;;;;33.25;24.30;;;;;;;;;;10065803;28;20061;-76
2022/12/15 07:32:10;;;;;;;30.25;23.70;;;;;;;;;;10066044;28;20461;-74
2022/12/15 07:37:03;;;;;;;37.33;26.05;;;;;;;;;;10065389;28;20041;-76
2022/12/15 07:41:56;;;;;;;38.25;25.55;;;;;;;;;;10065026;28;20457;-76
2022/12/15 07:46:51;;;;;;;36.40;28.13;;;;;;;;;;10063032;28;20103;-76
2022/12/15 07:51:45;;;;;;;32.75;26.95;;;;;;;;;;10066008;28;20053;-76
2022/12/15 07:56:38;;;;;;;36.95;27.52;;;;;;;;;;10069075;28;20494;-76
2022/12/15 08:01:32;;;;;;;51.88;40.55;;;;;;;;;;10068356;28;20453;-76
2022/12/15 08:06:25;;;;;;;41.05;30.50;;;;;;;;;;10068327;28;20068;-76
2022/12/15 08:11:20;;;;;;;41.15;31.38;;;;;;;;;;10069750;28;20046;-77
2022/12/15 08:16:13;;;;;;;42.00;32.55;;;;;;;;;;10072147;28;20058;-76
2022/12/15 08:21:07;;;;;;;51.92;35.00;;;;;;;;;;10072050;28;20144;-76
2022/12/15 08:26:05;;;;;;;53.35;37.13;;;;;;;;;;10071628;28;20050;-76
2022/12/15 08:31:07;;;;;;;44.63;35.63;;;;;;;;;;10071403;28;20115;-76
2022/12/15 08:36:04;;;;;;;49.95;36.75;;;;;;;;;;10072558;28;20068;-76
2022/12/15 08:40:57;;;;;;;54.70;36.92;;;;;;;;;;10070803;28;20117;-76
2022/12/15 08:45:50;;;;;;;49.67;37.03;;;;;;;;;;10069063;28;20045;-76
2022/12/15 08:50:44;;;;;;;51.67;38.58;;;;;;;;;;10067486;28;20049;-74
2022/12/15 08:55:37;;;;;;;50.97;38.00;;;;;;;;;;10065475;28;20472;-76
2022/12/15 09:00:30;;;;;;;49.55;35.17;;;;;;;;;;10066169;28;20049;-71
2022/12/15 09:05:24;;;;;;;46.58;35.58;;;;;;;;;;10066574;28;20052;-70
2022/12/15 09:10:17;;;;;;;48.30;35.70;;;;;;;;;;10066307;28;20053;-69
2022/12/15 09:15:10;;;;;;;47.95;34.92;;;;;;;;;;10068040;28;20080;-69
2022/12/15 09:20:08;;;;;;;45.40;34.75;;;;;;;;;;10067984;28;20113;-70
2022/12/15 09:25:05;;;;;;;41.47;34.30;;;;;;;;;;10069163;28;20067;-70
2022/12/15 09:29:59;;;;;;;52.97;35.17;;;;;;;;;;10069912;28;20081;-71
2022/12/15 09:34:53;;;;;;;55.03;39.20;;;;;;;;;;10068057;28;20065;-70
2022/12/15 09:39:46;;;;;;;50.95;37.08;;;;;;;;;;10064872;28;20041;-71
2022/12/15 09:44:39;;;;;;;54.75;37.28;;;;;;;;;;10069093;28;20045;-71
2022/12/15 09:49:38;;;;;;;57.20;35.80;;;;;;;;;;10068737;28;20080;-71
2022/12/15 09:54:33;;;;;;;44.43;33.70;;;;;;;;;;10067369;28;20049;-70
2022/12/15 09:59:48;;;;;;;41.42;28.63;;;;;;;;;;10066300;28;20154;-71
2022/12/15 10:05:20;;;;;;;53.20;32.47;;;;;;;;;;10067397;28;20053;-71
2022/12/15 10:10:25;;;;;;;44.25;32.17;;;;;;;;;;10062170;28;20115;-71
2022/12/15 10:15:23;;;;;;;40.53;29.67;;;;;;;;;;10067502;28;20057;-71
2022/12/15 10:20:22;;;;;;;38.28;29.35;;;;;;;;;;10047577;28;20053;-71
2022/12/15 10:25:22;;;;;;;50.88;28.83;;;;;;;;;;10059913;28;20046;-72
2022/12/15 10:30:23;;;;;;;41.75;28.02;;;;;;;;;;10063392;28;20664;-71
2022/12/15 10:35:27;;;;;;;44.83;30.90;;;;;;;;;;10065152;28;20080;-72
2022/12/15 10:40:44;;;;;;;42.58;29.77;;;;;;;;;;10067165;28;20071;-72
2022/12/15 10:45:49;;;;;;;47.13;29.83;;;;;;;;;;10067314;28;20037;-71
2022/12/15 10:50:41;;;;;;;44.05;29.20;;;;;;;;;;10066273;28;20402;-72
2022/12/15 10:55:36;;;;;;;43.83;30.73;;;;;;;;;;10067027;28;20061;-71
2022/12/15 11:00:30;;;;;;;38.47;28.85;;;;;;;;;;10065779;28;20477;-71
2022/12/15 11:05:24;;;;;;;43.42;30.58;;;;;;;;;;10066109;28;20053;-71
2022/12/15 11:12:50;;;;;;;37.40;28.60;;;;;;;;;;10066497;28;20061;-71
2022/12/15 11:16:13;;;;;;;47.08;31.42;;;;;;;;;;10064994;28;20072;-71
2022/12/15 11:21:24;;;;;;;40.92;29.42;;;;;;;;;;10066417;28;20057;-71
2022/12/15 11:26:25;;;;;;;50.58;31.58;;;;;;;;;;10065647;28;20054;-71
2022/12/15 11:31:36;;;;;;;46.42;30.17;;;;;;;;;;10068633;28;20132;-71
2022/12/15 11:36:50;;;;;;;44.60;30.80;;;;;;;;;;10072538;28;21155;-71
2022/12/15 11:41:59;;;;;;;42.15;31.75;;;;;;;;;;10070980;28;20100;-71
2022/12/15 11:46:54;;;;;;;43.53;31.53;;;;;;;;;;10072018;28;20514;-71
2022/12/15 11:52:08;;;;;;;47.92;34.53;;;;;;;;;;10072484;28;20141;-71
2022/12/15 11:57:26;;;;;;;44.63;32.85;;;;;;;;;;10071189;28;20442;-71
2022/12/15 12:02:54;;;;;;;46.42;34.40;;;;;;;;;;10069790;28;20056;-71
2022/12/15 12:08:19;;;;;;;41.15;31.92;;;;;;;;;;10071266;28;20065;-70
2022/12/15 12:13:36;;;;;;;41.63;31.45;;;;;;;;;;10061128;28;20136;-71
2022/12/15 12:18:33;;;;;;;45.83;32.20;;;;;;;;;;10067507;28;20041;-72
2022/12/15 12:23:38;;;;;;;46.13;29.83;;;;;;;;;;10071431;28;20405;-72
2022/12/15 12:28:58;;;;;;;43.40;30.20;;;;;;;;;;10071970;28;20058;-71
2022/12/15 12:33:54;;;;;;;41.00;31.33;;;;;;;;;;10064453;28;20091;-70
2022/12/15 12:38:50;;;;;;;38.55;28.92;;;;;;;;;;10070347;28;20046;-66
2022/12/15 12:43:50;;;;;;;43.78;30.23;;;;;;;;;;10069616;28;20055;-66
2022/12/15 12:48:52;;;;;;;45.50;30.33;;;;;;;;;;10068457;28;20038;-66
2022/12/15 12:53:45;;;;;;;38.28;30.38;;;;;;;;;;10069875;28;20069;-65
2022/12/15 12:58:40;;;;;;;46.28;29.15;;;;;;;;;;10069074;28;20056;-65
2022/12/15 13:03:37;;;;;;;46.35;30.85;;;;;;;;;;10070475;28;20069;-65
2022/12/15 13:09:07;;;;;;;45.08;32.90;;;;;;;;;;10071393;28;20056;-65
2022/12/15 13:14:02;;;;;;;41.05;30.90;;;;;;;;;;10060439;28;20061;-65
2022/12/15 13:19:03;;;;;;;42.28;32.53;;;;;;;;;;10068921;28;20445;-66
2022/12/15 13:23:58;;;;;;;50.10;34.33;;;;;;;;;;10070174;28;20099;-66
2022/12/15 13:28:52;;;;;;;45.03;32.38;;;;;;;;;;10069225;28;20473;-66
2022/12/15 13:33:50;;;;;;;54.50;33.85;;;;;;;;;;10069772;28;20050;-66
2022/12/15 13:38:54;;;;;;;49.70;33.55;;;;;;;;;;10056725;28;20045;-66
2022/12/15 13:43:47;;;;;;;56.25;37.85;;;;;;;;;;10067798;28;20072;-66
2022/12/15 13:48:52;;;;;;;53.30;38.65;;;;;;;;;;10065201;28;20033;-66
2022/12/15 13:53:56;;;;;;;55.65;40.15;;;;;;;;;;10064806;28;20053;-66
2022/12/15 13:58:56;;;;;;;66.97;44.13;;;;;;;;;;10068154;28;20065;-66
2022/12/15 14:04:02;;;;;;;61.30;39.88;;;;;;;;;;10067780;28;20103;-66
2022/12/15 14:08:55;;;;;;;56.13;41.10;;;;;;;;;;10065164;28;20049;-67
2022/12/15 14:13:58;;;;;;;59.90;41.58;;;;;;;;;;10066764;28;20053;-66
2022/12/15 14:19:11;;;;;;;62.33;41.08;;;;;;;;;;10065219;28;20046;-69
2022/12/15 14:24:31;;;;;;;59.65;43.88;;;;;;;;;;10065769;28;20493;-66
2022/12/15 14:29:44;;;;;;;63.00;43.55;;;;;;;;;;10066760;28;20049;-66
2022/12/15 14:34:43;;;;;;;60.50;40.92;;;;;;;;;;10064359;28;20053;-64
2022/12/15 14:39:47;;;;;;;58.22;40.60;;;;;;;;;;10064618;28;20104;-66
2022/12/15 14:45:00;;;;;;;54.90;41.05;;;;;;;;;;10065503;28;20049;-66
2022/12/15 14:49:54;;;;;;;57.15;39.72;;;;;;;;;;10066737;28;20065;-66
2022/12/15 14:54:54;;;;;;;56.10;40.13;;;;;;;;;;10066173;28;20098;-66
2022/12/15 14:59:51;;;;;;;58.70;43.65;;;;;;;;;;10066067;28;20045;-66
2022/12/15 15:05:24;;;;;;;51.50;38.92;;;;;;;;;;10065238;28;20045;-66
2022/12/15 15:10:23;;;;;;;60.50;42.03;;;;;;;;;;9940963;28;20547;-65
2022/12/15 15:15:20;;;;;;;58.83;43.53;;;;;;;;;;10061525;28;20152;-64
2022/12/15 15:20:16;;;;;;;48.75;36.85;;;;;;;;;;10064074;28;20054;-66
2022/12/15 15:25:28;;;;;;;61.30;44.08;;;;;;;;;;10064179;28;20042;-66
2022/12/15 15:30:41;;;;;;;55.00;42.08;;;;;;;;;;10062689;28;20103;-66
2022/12/15 15:35:35;;;;;;;61.28;42.67;;;;;;;;;;10066176;28;20130;-66
2022/12/15 15:40:28;;;;;;;55.25;40.85;;;;;;;;;;10064059;28;20136;-66
2022/12/15 15:45:22;;;;;;;59.28;44.25;;;;;;;;;;10062933;28;20145;-66
2022/12/15 15:50:17;;;;;;;71.20;45.08;;;;;;;;;;10062832;28;20053;-64
2022/12/15 15:55:14;;;;;;;64.88;48.80;;;;;;;;;;10062930;28;20057;-65
2022/12/15 16:00:20;;;;;;;91.22;61.65;;;;;;;;;;10062957;28;20052;-65
2022/12/15 16:05:12;;;;;;;70.22;51.28;;;;;;;;;;10064936;28;20061;-65
2022/12/15 16:10:12;;;;;;;75.93;55.95;;;;;;;;;;10064090;28;20528;-65
2022/12/15 16:15:32;;;;;;;76.65;54.35;;;;;;;;;;10064732;28;20140;-65
2022/12/15 16:20:27;;;;;;;72.33;48.47;;;;;;;;;;10071846;28;20059;-64
2022/12/15 16:25:32;;;;;;;59.00;46.70;;;;;;;;;;10059705;28;20054;-64
2022/12/15 16:30:45;;;;;;;60.97;43.67;;;;;;;;;;10070725;28;20057;-63
2022/12/15 16:35:40;;;;;;;58.78;43.50;;;;;;;;;;10070802;28;20053;-64
2022/12/15 16:40:37;;;;;;;63.67;44.30;;;;;;;;;;10071605;28;20069;-65
2022/12/15 16:45:31;;;;;;;57.38;44.85;;;;;;;;;;10069740;28;20402;-65
2022/12/15 16:50:29;;;;;;;62.88;43.45;;;;;;;;;;10070464;28;20065;-65
2022/12/15 16:55:27;;;;;;;57.35;42.40;;;;;;;;;;10069442;28;20555;-63
2022/12/15 17:00:30;;;;;;;64.32;45.08;;;;;;;;;;10068822;28;20057;-63
2022/12/15 17:05:26;;;;;;;54.70;40.22;;;;;;;;;;10069046;28;20041;-63
2022/12/15 17:10:25;;;;;;;51.60;37.72;;;;;;;;;;10067033;28;20052;-65
2022/12/15 17:15:20;;;;;;;55.00;39.13;;;;;;;;;;10070152;28;20064;-63
2022/12/15 17:20:19;;;;;;;53.97;39.47;;;;;;;;;;10069158;28;20482;-65
2022/12/15 17:25:23;;;;;;;50.05;40.85;;;;;;;;;;10069850;28;20465;-64
2022/12/15 17:30:35;;;;;;;51.05;39.75;;;;;;;;;;10066215;28;20049;-67
2022/12/15 17:35:29;;;;;;;57.83;42.83;;;;;;;;;;10068915;28;20060;-68
2022/12/15 17:40:23;;;;;;;57.95;41.75;;;;;;;;;;10066499;28;20517;-69
2022/12/15 17:45:23;;;;;;;62.25;46.22;;;;;;;;;;10063848;28;20080;-69
2022/12/15 17:50:18;;;;;;;60.58;48.55;;;;;;;;;;10065365;28;20064;-68
2022/12/15 17:55:22;;;;;;;68.50;45.53;;;;;;;;;;10058680;28;20049;-69
2022/12/15 18:00:15;;;;;;;58.00;45.55;;;;;;;;;;10058365;28;20048;-71
2022/12/15 18:05:09;;;;;;;56.90;42.92;;;;;;;;;;10067551;28;20050;-70
2022/12/15 18:10:02;;;;;;;61.00;44.03;;;;;;;;;;10067709;28;20136;-70
2022/12/15 18:14:56;;;;;;;56.67;44.45;;;;;;;;;;10064460;28;20518;-70
2022/12/15 18:19:49;;;;;;;60.58;50.15;;;;;;;;;;10061379;28;20466;-69
2022/12/15 18:24:44;;;;;;;51.42;41.38;;;;;;;;;;10062317;28;20060;-68
2022/12/15 18:29:39;;;;;;;62.13;47.78;;;;;;;;;;10058971;28;20160;-69
2022/12/15 18:34:32;;;;;;;61.72;48.47;;;;;;;;;;10060442;28;20107;-68
2022/12/15 18:39:27;;;;;;;65.45;47.38;;;;;;;;;;10061501;28;20083;-68
2022/12/15 18:44:27;;;;;;;56.42;43.90;;;;;;;;;;10061934;28;20561;-68
2022/12/15 18:49:23;;;;;;;54.13;44.65;;;;;;;;;;10061188;28;20049;-67
2022/12/15 18:54:18;;;;;;;53.53;39.50;;;;;;;;;;10066348;28;20069;-69
2022/12/15 18:59:16;;;;;;;48.78;37.13;;;;;;;;;;10067024;28;20477;-68
2022/12/15 19:04:10;;;;;;;43.88;35.50;;;;;;;;;;10066623;28;20045;-68
2022/12/15 19:09:16;;;;;;;41.70;35.28;;;;;;;;;;10066993;28;20048;-67
2022/12/15 19:14:38;;;;;;;44.17;33.72;;;;;;;;;;10063357;28;20049;-67
2022/12/15 19:24:55;;;;;;;48.53;39.20;;;;;;;;;;10061140;28;20414;-68
2022/12/15 19:29:49;;;;;;;50.22;40.25;;;;;;;;;;10062789;28;20103;-68
2022/12/15 19:34:43;;;;;;;47.03;38.13;;;;;;;;;;10065117;28;20054;-67
2022/12/15 19:39:37;;;;;;;47.75;39.13;;;;;;;;;;10065761;28;20050;-67
2022/12/15 19:44:31;;;;;;;55.60;38.80;;;;;;;;;;10061650;28;20505;-68
2022/12/15 19:49:25;;;;;;;49.28;39.35;;;;;;;;;;10062064;28;20042;-67
2022/12/15 19:54:20;;;;;;;63.45;47.40;;;;;;;;;;10071041;28;20053;-67
2022/12/15 19:59:23;;;;;;;52.63;41.33;;;;;;;;;;10072584;28;20068;-69
2022/12/15 20:04:19;;;;;;;55.70;41.33;;;;;;;;;;10071276;28;20045;-68
2022/12/15 20:09:17;;;;;;;55.53;43.15;;;;;;;;;;10071949;28;20136;-69
2022/12/15 20:14:15;;;;;;;51.33;38.78;;;;;;;;;;10070657;28;20429;-67
2022/12/15 20:19:09;;;;;;;47.03;38.10;;;;;;;;;;10080707;28;20648;-69
2022/12/15 20:24:10;;;;;;;51.70;40.08;;;;;;;;;;10088726;28;20456;-69
2022/12/15 20:29:21;;;;;;;52.80;38.80;;;;;;;;;;10083137;28;20048;-69
2022/12/15 20:34:16;;;;;;;50.85;37.50;;;;;;;;;;10080228;28;20104;-68
2022/12/15 20:39:34;;;;;;;46.80;35.13;;;;;;;;;;10077395;28;20050;-69
2022/12/15 20:44:29;;;;;;;33.83;30.15;;;;;;;;;;10077910;28;20049;-65
2022/12/15 20:49:22;;;;;;;36.70;29.45;;;;;;;;;;10073337;28;20053;-67
2022/12/15 20:54:17;;;;;;;36.58;29.65;;;;;;;;;;10082843;28;20038;-67
2022/12/15 20:59:11;;;;;;;32.92;27.27;;;;;;;;;;10089206;28;20052;-67
2022/12/15 21:04:18;;;;;;;31.48;25.08;;;;;;;;;;10079826;28;20099;-67
2022/12/15 21:09:13;;;;;;;27.98;24.27;;;;;;;;;;10086044;28;20088;-69
2022/12/15 21:14:19;;;;;;;29.25;25.10;;;;;;;;;;10091932;28;20139;-67
2022/12/15 21:19:11;;;;;;;29.83;24.38;;;;;;;;;;10085671;28;20383;-63
2022/12/15 21:24:21;;;;;;;23.75;20.98;;;;;;;;;;10083513;28;20522;-64
2022/12/15 21:29:16;;;;;;;25.38;21.58;;;;;;;;;;10087021;28;20540;-65
2022/12/15 21:34:10;;;;;;;26.10;23.30;;;;;;;;;;10087324;28;20497;-66
2022/12/15 21:39:05;;;;;;;22.45;18.65;;;;;;;;;;10086012;28;20042;-67
2022/12/15 21:44:01;;;;;;;21.55;18.05;;;;;;;;;;10084736;28;20492;-70
2022/12/15 21:54:18;;;;;;;19.88;17.75;;;;;;;;;;10078617;28;20099;-67
2022/12/15 21:59:13;;;;;;;17.13;15.32;;;;;;;;;;10084258;28;20047;-68
2022/12/15 22:04:18;;;;;;;18.10;14.75;;;;;;;;;;10082107;28;20073;-71
2022/12/15 22:09:12;;;;;;;16.42;14.85;;;;;;;;;;10068699;28;20122;-70
2022/12/15 22:14:27;;;;;;;17.23;15.43;;;;;;;;;;10078577;28;20073;-69
2022/12/15 22:19:22;;;;;;;18.17;15.95;;;;;;;;;;10074161;28;20052;-67
2022/12/15 22:24:14;;;;;;;22.13;16.92;;;;;;;;;;10073223;28;20402;-67
2022/12/15 22:29:21;;;;;;;18.15;16.40;;;;;;;;;;10082246;28;20413;-70
2022/12/15 22:34:19;;;;;;;21.13;18.83;;;;;;;;;;10087298;28;20056;-67
2022/12/15 22:39:13;;;;;;;22.73;20.33;;;;;;;;;;10072737;28;20523;-69
2022/12/15 22:44:23;;;;;;;23.63;20.70;;;;;;;;;;10086336;28;20053;-68
2022/12/15 22:49:23;;;;;;;30.00;24.40;;;;;;;;;;10085395;28;20065;-67
2022/12/15 22:54:16;;;;;;;;;;;;;;;;;;10086543;28;20418;-67
2022/12/15 22:59:15;;;;;;;20.42;18.25;;;;;;;;;;10095996;28;19924;-68
2022/12/15 23:04:08;;;;;;;23.30;20.90;;;;;;;;;;10074848;28;20099;-67
2022/12/15 23:09:02;;;;;;;18.15;15.93;;;;;;;;;;10066421;28;20052;-66
2022/12/15 23:13:55;;;;;;;18.13;15.52;;;;;;;;;;10066314;28;20126;-68
2022/12/15 23:18:51;;;;;;;16.33;14.73;;;;;;;;;;10066072;28;20477;-67
2022/12/15 23:23:46;;;;;;;17.30;15.55;;;;;;;;;;10066358;28;20057;-69
2022/12/15 23:28:40;;;;;;;18.42;16.45;;;;;;;;;;10079146;28;20375;-67
2022/12/15 23:33:32;;;;;;;17.67;15.32;;;;;;;;;;10080125;28;20486;-69
2022/12/15 23:38:28;;;;;;;19.73;16.50;;;;;;;;;;10079213;28;20494;-69
2022/12/15 23:43:22;;;;;;;21.63;19.38;;;;;;;;;;10080015;28;20519;-68
2022/12/15 23:48:15;;;;;;;22.58;18.30;;;;;;;;;;10073160;28;20494;-69
2022/12/15 23:53:08;;;;;;;22.38;20.10;;;;;;;;;;10078596;28;20045;-69
2022/12/15 23:58:02;;;;;;;23.75;21.15;;;;;;;;;;10079334;28;20107;-70
